createdAt,value
2022-08-09T00:00:05.976Z,59.06
2022-08-09T00:01:02.445Z,59.06
2022-08-09T00:02:02.489Z,59.36
2022-08-09T00:03:02.380Z,59.16
2022-08-09T00:04:10.602Z,59.06
2022-08-09T00:06:18.016Z,59.26
2022-08-09T00:06:19.550Z,59.16
2022-08-09T00:07:03.310Z,59.16
2022-08-09T00:08:02.341Z,59.06
2022-08-09T00:09:02.340Z,59.36
2022-08-09T00:10:02.294Z,59.26
2022-08-09T00:11:06.115Z,59.16
2022-08-09T00:12:04.867Z,59.46
2022-08-09T00:13:02.241Z,59.89
2022-08-09T00:14:02.278Z,59.89
2022-08-09T00:15:06.736Z,59.77
2022-08-09T00:16:02.973Z,59.66
2022-08-09T00:17:02.195Z,59.86
2022-08-09T00:18:05.943Z,59.77
2022-08-09T00:19:03.255Z,59.66
2022-08-09T00:20:03.157Z,59.56
2022-08-09T00:21:02.145Z,59.66
2022-08-09T00:22:03.421Z,59.77
2022-08-09T00:23:07.849Z,59.66
2022-08-09T00:24:03.105Z,59.56
2022-08-09T00:25:04.012Z,59.77
2022-08-09T00:26:05.139Z,59.77
2022-08-09T00:27:02.062Z,59.77
2022-08-09T00:28:04.054Z,59.86
2022-08-09T00:29:02.055Z,59.66
2022-08-09T00:30:24.543Z,59.56
2022-08-09T00:31:56.811Z,59.77
2022-08-09T00:32:03.722Z,59.77
2022-08-09T00:33:01.999Z,59.86
2022-08-09T00:34:02.505Z,60.06
2022-08-09T00:35:01.956Z,59.86
2022-08-09T00:36:01.946Z,59.96
2022-08-09T00:37:01.976Z,59.86
2022-08-09T00:38:01.935Z,59.86
2022-08-09T00:39:01.939Z,59.96
2022-08-09T00:40:13.461Z,59.77
2022-08-09T00:41:02.970Z,59.74
2022-08-09T00:44:11.191Z,59.44
2022-08-09T00:44:16.958Z,59.53
2022-08-09T00:44:19.800Z,59.44
2022-08-09T00:45:03.713Z,59.44
2022-08-09T00:46:02.816Z,59.44
2022-08-09T00:47:05.655Z,59.33
2022-08-09T00:48:01.796Z,59.44
2022-08-09T00:49:01.795Z,59.53
2022-08-09T00:50:01.775Z,59.64
2022-08-09T00:51:01.757Z,59.77
2022-08-09T00:52:05.965Z,59.96
2022-08-09T00:53:08.851Z,59.96
2022-08-09T00:54:02.759Z,60.06
2022-08-09T00:55:01.918Z,60.06
2022-08-09T00:56:05.741Z,60.16
2022-08-09T00:57:02.668Z,60.06
2022-08-09T00:58:02.657Z,60.16
2022-08-09T00:59:01.639Z,60.16
2022-08-09T01:00:02.786Z,59.96
2022-08-09T01:01:03.268Z,59.86
2022-08-09T01:02:01.608Z,59.86
2022-08-09T01:03:01.590Z,59.77
2022-08-09T01:04:01.580Z,59.96
2022-08-09T01:05:02.537Z,59.96
2022-08-09T01:06:13.815Z,60.06
2022-08-09T01:07:03.641Z,60.06
2022-08-09T01:08:01.650Z,59.96
2022-08-09T01:09:01.803Z,60.27
2022-08-09T01:10:01.510Z,60.36
2022-08-09T01:11:01.504Z,60.57
2022-08-09T01:12:01.522Z,60.69
2022-08-09T01:13:01.460Z,60.80
2022-08-09T01:14:01.796Z,60.89
2022-08-09T01:15:01.430Z,60.80
2022-08-09T01:16:01.431Z,60.80
2022-08-09T01:17:01.441Z,60.80
2022-08-09T01:18:01.426Z,60.57
2022-08-09T01:19:02.064Z,60.66
2022-08-09T01:20:02.731Z,60.57
2022-08-09T01:21:01.361Z,60.80
2022-08-09T01:22:01.382Z,60.80
2022-08-09T01:23:01.329Z,61.10
2022-08-09T01:24:05.158Z,61.00
2022-08-09T01:25:01.311Z,61.19
2022-08-09T01:26:01.311Z,61.10
2022-08-09T01:27:01.281Z,61.10
2022-08-09T01:28:01.308Z,60.89
2022-08-09T01:29:01.262Z,60.80
2022-08-09T01:30:01.269Z,60.66
2022-08-09T01:31:01.234Z,60.57
2022-08-09T01:32:32.093Z,60.57
2022-08-09T01:33:02.225Z,60.47
2022-08-09T01:34:01.205Z,60.47
2022-08-09T01:35:06.928Z,60.47
2022-08-09T01:36:02.194Z,60.66
2022-08-09T01:37:01.154Z,60.60
2022-08-09T01:38:09.901Z,60.66
2022-08-09T01:39:02.149Z,60.69
2022-08-09T01:40:01.120Z,60.89
2022-08-09T01:41:04.783Z,60.80
2022-08-09T01:42:04.084Z,60.77
2022-08-09T01:43:02.103Z,60.89
2022-08-09T01:44:01.066Z,60.89
2022-08-09T01:45:01.056Z,60.89
2022-08-09T01:47:11.733Z,61.10
2022-08-09T01:48:11.187Z,61.40
2022-08-09T01:49:12.635Z,61.72
2022-08-09T01:50:11.156Z,61.93
2022-08-09T01:51:11.140Z,62.03
2022-08-09T01:52:12.169Z,61.83
2022-08-09T01:53:19.257Z,61.83
2022-08-09T01:54:12.111Z,61.72
2022-08-09T01:55:11.091Z,61.72
2022-08-09T01:56:11.193Z,61.60
2022-08-09T01:57:11.073Z,61.60
2022-08-09T01:58:11.079Z,61.63
2022-08-09T01:59:11.060Z,61.63
2022-08-09T02:00:34.817Z,61.72
2022-08-09T02:01:18.438Z,61.93
2022-08-09T02:02:12.036Z,61.93
2022-08-09T02:03:13.628Z,61.72
2022-08-09T02:04:10.971Z,61.83
2022-08-09T02:05:11.851Z,62.03
2022-08-09T02:06:10.952Z,62.13
2022-08-09T02:07:18.075Z,62.03
2022-08-09T02:08:39.794Z,62.13
2022-08-09T02:09:11.909Z,62.33
2022-08-09T02:10:10.907Z,62.33
2022-08-09T02:11:16.798Z,62.33
2022-08-09T02:12:13.555Z,62.33
2022-08-09T02:13:11.854Z,62.33
2022-08-09T02:14:10.864Z,62.43
2022-08-09T02:15:16.830Z,62.33
2022-08-09T02:16:12.378Z,62.13
2022-08-09T02:17:15.403Z,62.13
2022-08-09T02:18:11.869Z,62.00
2022-08-09T02:19:10.793Z,61.80
2022-08-09T02:20:10.760Z,61.80
2022-08-09T02:21:10.743Z,61.80
2022-08-09T02:22:11.733Z,61.90
2022-08-09T02:23:10.721Z,62.00
2022-08-09T02:24:10.725Z,61.80
2022-08-09T02:25:15.261Z,62.13
2022-08-09T02:26:25.133Z,62.23
2022-08-09T02:27:11.678Z,62.43
2022-08-09T02:28:11.666Z,62.86
2022-08-09T02:29:11.685Z,63.06
2022-08-09T02:30:10.637Z,63.26
2022-08-09T02:31:10.625Z,63.59
2022-08-09T02:32:10.614Z,64.10
2022-08-09T02:33:14.188Z,64.20
2022-08-09T02:34:13.434Z,64.33
2022-08-09T02:35:17.605Z,64.50
2022-08-09T02:36:11.556Z,64.30
2022-08-09T02:37:12.042Z,64.00
2022-08-09T02:38:10.525Z,64.10
2022-08-09T02:39:14.522Z,64.10
2022-08-09T02:40:11.524Z,64.10
2022-08-09T02:41:11.438Z,64.30
2022-08-09T02:42:10.506Z,64.10
2022-08-09T02:43:10.628Z,63.79
2022-08-09T02:44:29.458Z,63.79
2022-08-09T02:45:11.439Z,63.79
2022-08-09T02:46:10.438Z,64.00
2022-08-09T02:47:10.428Z,63.90
2022-08-09T02:48:12.215Z,63.67
2022-08-09T02:49:11.390Z,63.26
2022-08-09T02:50:10.368Z,63.26
2022-08-09T02:51:10.356Z,63.26
2022-08-09T02:52:10.375Z,63.39
2022-08-09T02:53:10.345Z,63.70
2022-08-09T02:54:12.474Z,64.00
2022-08-09T02:55:20.183Z,64.33
2022-08-09T02:56:11.318Z,64.63
2022-08-09T02:57:14.173Z,64.73
2022-08-09T02:58:36.805Z,64.63
2022-08-09T02:59:14.862Z,64.83
2022-08-09T03:00:25.347Z,64.93
2022-08-09T03:01:21.961Z,64.63
2022-08-09T03:02:12.143Z,64.50
2022-08-09T03:03:11.309Z,64.40
2022-08-09T03:04:18.239Z,64.20
2022-08-09T03:05:11.235Z,63.96
2022-08-09T03:06:11.169Z,63.67
2022-08-09T03:07:14.106Z,63.36
2022-08-09T03:08:10.131Z,63.26
2022-08-09T03:09:11.110Z,63.36
2022-08-09T03:10:10.110Z,63.17
2022-08-09T03:11:10.394Z,63.06
2022-08-09T03:12:11.108Z,63.36
2022-08-09T03:13:10.132Z,63.59
2022-08-09T03:14:10.290Z,64.10
2022-08-09T03:15:10.072Z,64.30
2022-08-09T03:16:10.033Z,64.10
2022-08-09T03:17:16.565Z,64.00
2022-08-09T03:18:11.021Z,63.87
2022-08-09T03:19:14.090Z,63.76
2022-08-09T03:20:11.477Z,63.67
2022-08-09T03:21:09.982Z,63.46
2022-08-09T03:22:12.275Z,63.17
2022-08-09T03:23:15.239Z,63.17
2022-08-09T03:24:10.931Z,63.36
2022-08-09T03:25:21.714Z,63.46
2022-08-09T03:26:10.912Z,63.49
2022-08-09T03:27:10.664Z,64.10
2022-08-09T03:28:11.210Z,64.20
2022-08-09T03:29:13.509Z,64.40
2022-08-09T03:30:10.896Z,64.73
2022-08-09T03:31:10.105Z,64.63
2022-08-09T03:32:10.826Z,64.93
2022-08-09T03:33:18.465Z,65.33
2022-08-09T03:34:10.805Z,65.33
2022-08-09T03:35:24.475Z,65.23
2022-08-09T03:36:13.936Z,65.23
2022-08-09T03:37:55.836Z,65.13
2022-08-09T03:38:10.752Z,65.23
2022-08-09T03:39:10.767Z,65.03
2022-08-09T03:40:09.724Z,65.03
2022-08-09T03:41:09.724Z,65.23
2022-08-09T03:42:10.703Z,65.47
2022-08-09T03:43:09.693Z,65.56
2022-08-09T03:44:09.680Z,65.77
2022-08-09T03:45:09.663Z,65.77
2022-08-09T03:46:19.811Z,65.87
2022-08-09T03:47:10.647Z,65.87
2022-08-09T03:48:09.617Z,65.97
2022-08-09T03:49:09.823Z,65.87
2022-08-09T03:50:09.601Z,66.07
2022-08-09T03:51:56.537Z,66.37
2022-08-09T03:52:10.567Z,66.17
2022-08-09T03:53:10.806Z,66.37
2022-08-09T03:54:11.183Z,66.37
2022-08-09T03:55:09.769Z,66.17
2022-08-09T03:56:09.576Z,65.87
2022-08-09T03:57:18.026Z,65.64
2022-08-09T03:58:16.113Z,65.44
2022-08-09T03:59:17.248Z,65.23
2022-08-09T04:00:10.477Z,64.90
2022-08-09T04:01:09.535Z,64.90
2022-08-09T04:02:09.436Z,65.03
2022-08-09T04:03:11.782Z,65.23
2022-08-09T04:04:14.764Z,65.53
2022-08-09T04:05:20.269Z,65.53
2022-08-09T04:06:10.378Z,65.33
2022-08-09T04:07:09.368Z,65.20
2022-08-09T04:08:09.356Z,65.23
2022-08-09T04:09:15.091Z,65.20
2022-08-09T04:10:10.391Z,65.10
2022-08-09T04:11:11.234Z,64.90
2022-08-09T04:12:11.959Z,64.80
2022-08-09T04:13:09.301Z,64.80
2022-08-09T04:14:53.478Z,64.80
2022-08-09T04:15:11.570Z,64.80
2022-08-09T04:16:20.693Z,64.80
2022-08-09T04:17:10.251Z,64.70
2022-08-09T04:18:09.209Z,64.57
2022-08-09T04:19:10.920Z,64.37
2022-08-09T04:20:10.200Z,64.37
2022-08-09T04:21:09.205Z,64.27
2022-08-09T04:22:13.090Z,64.17
2022-08-09T04:23:09.715Z,64.27
2022-08-09T04:24:09.141Z,64.47
2022-08-09T04:25:09.140Z,64.70
2022-08-09T04:26:09.132Z,64.80
2022-08-09T04:27:09.139Z,64.80
2022-08-09T04:28:09.100Z,64.90
2022-08-09T04:29:13.499Z,65.00
2022-08-09T04:30:10.072Z,65.10
2022-08-09T04:31:10.222Z,65.20
2022-08-09T04:32:09.046Z,65.00
2022-08-09T04:33:09.051Z,65.20
2022-08-09T04:34:09.057Z,65.20
2022-08-09T04:35:09.012Z,65.41
2022-08-09T04:36:09.001Z,65.70
2022-08-09T04:37:08.990Z,65.50
2022-08-09T04:38:08.971Z,65.41
2022-08-09T04:39:09.022Z,65.41
2022-08-09T04:40:08.952Z,65.30
2022-08-09T04:41:11.853Z,65.20
2022-08-09T04:42:09.301Z,65.10
2022-08-09T04:43:08.907Z,64.77
2022-08-09T04:44:11.224Z,64.87
2022-08-09T04:45:08.884Z,64.97
2022-08-09T04:46:08.875Z,65.10
2022-08-09T04:47:09.854Z,65.07
2022-08-09T04:48:10.575Z,65.07
2022-08-09T04:49:08.835Z,65.30
2022-08-09T04:50:09.833Z,65.41
2022-08-09T04:51:08.804Z,65.30
2022-08-09T04:52:09.725Z,65.20
2022-08-09T04:53:13.634Z,65.20
2022-08-09T04:54:09.774Z,65.30
2022-08-09T04:55:11.998Z,65.27
2022-08-09T04:56:08.744Z,65.41
2022-08-09T04:57:09.421Z,65.41
2022-08-09T04:58:09.716Z,65.60
2022-08-09T04:59:15.411Z,65.50
2022-08-09T05:00:09.677Z,65.50
2022-08-09T05:01:16.042Z,65.47
2022-08-09T05:02:09.645Z,65.37
2022-08-09T05:03:30.254Z,65.37
2022-08-09T05:04:09.659Z,65.47
2022-08-09T05:05:10.114Z,65.37
2022-08-09T05:06:08.604Z,65.37
2022-08-09T05:07:08.599Z,65.27
2022-08-09T05:08:09.577Z,65.17
2022-08-09T05:09:08.598Z,65.07
2022-08-09T05:10:08.547Z,65.07
2022-08-09T05:11:08.560Z,65.47
2022-08-09T05:12:08.518Z,65.67
2022-08-09T05:13:08.515Z,65.77
2022-08-09T05:14:08.496Z,65.77
2022-08-09T05:15:11.835Z,65.57
2022-08-09T05:16:10.093Z,65.47
2022-08-09T05:18:36.567Z,65.67
2022-08-09T05:18:39.766Z,65.67
2022-08-09T05:19:09.448Z,65.67
2022-08-09T05:20:08.417Z,65.77
2022-08-09T05:21:13.457Z,65.97
2022-08-09T05:22:36.374Z,65.97
2022-08-09T05:23:55.349Z,65.97
2022-08-09T05:24:09.566Z,65.97
2022-08-09T05:25:08.377Z,66.17
2022-08-09T05:26:08.340Z,66.08
2022-08-09T05:27:09.330Z,66.17
2022-08-09T05:28:08.323Z,66.38
2022-08-09T05:29:17.341Z,66.28
2022-08-09T05:30:09.289Z,66.17
2022-08-09T05:31:09.601Z,65.74
2022-08-09T05:32:08.259Z,65.54
2022-08-09T05:33:09.506Z,65.44
2022-08-09T05:34:08.291Z,65.14
2022-08-09T05:35:09.223Z,65.14
2022-08-09T05:36:08.216Z,65.14
2022-08-09T05:37:11.506Z,65.14
2022-08-09T05:38:08.190Z,65.24
2022-08-09T05:39:08.210Z,65.54
2022-08-09T05:40:08.229Z,65.54
2022-08-09T05:41:08.445Z,65.04
2022-08-09T05:42:08.132Z,65.14
2022-08-09T05:43:08.172Z,64.91
2022-08-09T05:44:08.111Z,64.91
2022-08-09T05:45:08.129Z,64.71
2022-08-09T05:46:08.068Z,64.61
2022-08-09T05:47:08.060Z,64.31
2022-08-09T05:48:08.051Z,64.61
2022-08-09T05:49:08.040Z,64.01
2022-08-09T05:50:25.632Z,64.21
2022-08-09T05:51:30.353Z,64.71
2022-08-09T05:52:08.996Z,64.81
2022-08-09T05:53:21.397Z,64.81
2022-08-09T05:54:08.984Z,64.71
2022-08-09T05:55:08.636Z,64.48
2022-08-09T05:56:07.964Z,64.28
2022-08-09T05:57:07.945Z,63.47
2022-08-09T05:58:08.923Z,63.78
2022-08-09T05:59:08.915Z,63.67
2022-08-09T06:00:07.923Z,64.07
2022-08-09T06:01:07.888Z,63.98
2022-08-09T06:02:08.874Z,63.84
2022-08-09T06:03:10.678Z,63.64
2022-08-09T06:04:07.909Z,63.14
2022-08-09T06:05:07.835Z,62.74
2022-08-09T06:06:07.814Z,63.14
2022-08-09T06:07:07.827Z,62.41
2022-08-09T06:08:09.015Z,62.31
2022-08-09T06:09:23.246Z,61.91
2022-08-09T06:10:08.765Z,62.01
2022-08-09T06:11:16.498Z,61.91
2022-08-09T06:12:08.747Z,62.01
2022-08-09T06:13:18.894Z,61.91
2022-08-09T06:14:08.717Z,62.31
2022-08-09T06:15:10.049Z,62.01
2022-08-09T06:16:07.683Z,62.21
2022-08-09T06:17:09.817Z,61.81
2022-08-09T06:18:07.667Z,61.91
2022-08-09T06:19:07.648Z,61.48
2022-08-09T06:20:07.638Z,60.88
2022-08-09T06:21:07.639Z,60.98
2022-08-09T06:22:15.284Z,61.05
2022-08-09T06:23:08.588Z,60.55
2022-08-09T06:24:07.579Z,60.68
2022-08-09T06:25:08.627Z,60.65
2022-08-09T06:26:07.587Z,60.95
2022-08-09T06:27:07.537Z,60.52
2022-08-09T06:28:07.526Z,60.12
2022-08-09T06:29:07.518Z,59.89
2022-08-09T06:30:09.824Z,59.19
2022-08-09T06:31:07.508Z,58.69
2022-08-09T06:32:08.751Z,58.69
2022-08-09T06:33:30.219Z,58.49
2022-08-09T06:34:08.458Z,58.39
2022-08-09T06:35:07.437Z,58.59
2022-08-09T06:36:07.528Z,58.56
2022-08-09T06:37:09.976Z,57.57
2022-08-09T06:38:07.401Z,57.87
2022-08-09T06:39:09.126Z,57.97
2022-08-09T06:40:20.292Z,57.76
2022-08-09T06:41:18.364Z,57.74
2022-08-09T06:42:11.484Z,57.84
2022-08-09T06:43:07.741Z,57.74
2022-08-09T06:44:07.360Z,57.74
2022-08-09T06:46:06.040Z,57.24
2022-08-09T06:46:10.954Z,57.54
2022-08-09T06:47:08.415Z,57.54
2022-08-09T06:48:07.260Z,57.11
2022-08-09T06:49:07.251Z,57.01
2022-08-09T06:50:13.783Z,57.31
2022-08-09T06:51:08.314Z,57.14
2022-08-09T06:52:07.889Z,57.04
2022-08-09T06:53:07.213Z,56.84
2022-08-09T06:54:09.289Z,57.24
2022-08-09T06:55:09.996Z,57.21
2022-08-09T06:56:07.201Z,56.91
2022-08-09T06:57:08.353Z,57.41
2022-08-09T06:58:07.133Z,57.28
2022-08-09T07:00:50.510Z,56.68
2022-08-09T07:00:54.358Z,56.18
2022-08-09T07:01:08.163Z,55.56
2022-08-09T07:02:07.132Z,55.86
2022-08-09T07:03:07.073Z,55.76
2022-08-09T07:04:07.066Z,55.46
2022-08-09T07:05:07.125Z,55.36
2022-08-09T07:06:07.059Z,55.36
2022-08-09T07:07:07.095Z,54.96
2022-08-09T07:08:08.017Z,55.16
2022-08-09T07:09:07.004Z,54.76
2022-08-09T07:10:22.606Z,54.86
2022-08-09T07:11:07.985Z,54.66
2022-08-09T07:12:06.955Z,55.06
2022-08-09T07:13:27.720Z,54.57
2022-08-09T07:14:07.937Z,54.89
2022-08-09T07:16:34.945Z,55.58
2022-08-09T07:16:43.302Z,56.18
2022-08-09T07:17:08.266Z,56.48
2022-08-09T07:18:06.909Z,55.69
2022-08-09T07:19:07.831Z,55.16
2022-08-09T07:20:06.861Z,54.86
2022-08-09T07:21:07.883Z,54.74
2022-08-09T07:22:06.870Z,54.94
2022-08-09T07:23:18.314Z,54.44
2022-08-09T07:24:07.802Z,54.04
2022-08-09T07:25:09.658Z,54.04
2022-08-09T07:26:06.817Z,53.91
2022-08-09T07:27:11.062Z,53.91
2022-08-09T07:28:07.758Z,53.61
2022-08-09T07:29:11.955Z,53.59
2022-08-09T07:30:07.721Z,53.39
2022-08-09T07:31:06.712Z,53.19
2022-08-09T07:32:06.691Z,52.86
2022-08-09T07:33:12.414Z,52.67
2022-08-09T07:34:07.671Z,52.34
2022-08-09T07:35:08.060Z,52.14
2022-08-09T07:36:06.649Z,51.65
2022-08-09T07:37:06.633Z,51.45
2022-08-09T07:38:07.629Z,51.54
2022-08-09T07:39:11.919Z,51.05
2022-08-09T07:40:07.630Z,51.05
2022-08-09T07:41:12.148Z,51.65
2022-08-09T07:42:07.563Z,51.25
2022-08-09T07:43:14.741Z,51.45
2022-08-09T07:44:07.530Z,51.45
2022-08-09T07:45:22.614Z,50.95
2022-08-09T07:46:07.542Z,49.76
2022-08-09T07:47:16.230Z,50.25
2022-08-09T07:48:07.284Z,50.25
2022-08-09T07:49:06.522Z,50.95
2022-08-09T07:50:08.606Z,50.15
2022-08-09T07:52:03.425Z,50.65
2022-08-09T07:52:17.075Z,50.65
2022-08-09T07:53:07.442Z,49.55
2022-08-09T07:54:08.497Z,49.85
2022-08-09T07:55:08.905Z,49.55
2022-08-09T07:56:06.752Z,49.95
2022-08-09T07:57:11.739Z,49.88
2022-08-09T07:58:13.271Z,50.48
2022-08-09T07:59:15.761Z,49.88
2022-08-09T08:00:08.925Z,50.18
2022-08-09T08:01:11.289Z,49.98
2022-08-09T08:02:07.480Z,50.08
2022-08-09T08:03:08.294Z,49.90
2022-08-09T08:04:10.336Z,49.10
2022-08-09T08:05:17.511Z,49.40
2022-08-09T08:06:07.256Z,49.83
2022-08-09T08:07:15.442Z,49.75
2022-08-09T08:09:01.829Z,50.13
2022-08-09T08:09:17.807Z,50.02
2022-08-09T08:10:08.772Z,49.03
2022-08-09T08:12:09.868Z,49.90
2022-08-09T08:12:23.909Z,49.60
2022-08-09T08:13:07.155Z,49.30
2022-08-09T08:14:06.429Z,49.01
2022-08-09T08:15:07.495Z,49.38
2022-08-09T08:16:06.125Z,49.38
2022-08-09T08:17:08.853Z,48.56
2022-08-09T08:18:06.086Z,47.86
2022-08-09T08:19:06.073Z,48.16
2022-08-09T08:20:12.741Z,47.77
2022-08-09T08:21:07.055Z,47.07
2022-08-09T08:22:06.035Z,47.17
2022-08-09T08:23:06.899Z,47.25
2022-08-09T08:24:12.219Z,47.25
2022-08-09T08:25:09.473Z,46.15
2022-08-09T08:26:11.413Z,46.15
2022-08-09T08:27:05.987Z,46.55
2022-08-09T08:28:06.979Z,45.75
2022-08-09T08:29:06.000Z,45.53
2022-08-09T08:30:05.941Z,45.63
2022-08-09T08:31:13.771Z,45.63
2022-08-09T08:32:06.930Z,45.23
2022-08-09T08:33:05.896Z,45.43
2022-08-09T08:34:06.879Z,44.71
2022-08-09T08:35:05.871Z,45.01
2022-08-09T08:36:05.869Z,45.31
2022-08-09T08:37:05.849Z,44.71
2022-08-09T08:38:11.451Z,44.62
2022-08-09T08:39:08.466Z,44.14
2022-08-09T08:40:05.926Z,44.93
2022-08-09T08:41:06.388Z,44.24
2022-08-09T08:42:05.801Z,44.74
2022-08-09T08:43:08.683Z,45.83
2022-08-09T08:44:06.785Z,45.11
2022-08-09T08:45:13.366Z,45.11
2022-08-09T08:46:32.458Z,45.11
2022-08-09T08:47:12.568Z,45.11
2022-08-09T08:48:06.714Z,44.99
2022-08-09T08:49:05.691Z,44.70
2022-08-09T08:50:05.706Z,43.90
2022-08-09T08:51:05.661Z,44.10
2022-08-09T08:52:10.235Z,44.20
2022-08-09T08:53:11.822Z,44.00
2022-08-09T08:54:06.623Z,44.27
2022-08-09T08:55:06.137Z,44.77
2022-08-09T08:56:06.112Z,44.57
2022-08-09T08:57:11.392Z,43.76
2022-08-09T08:58:06.584Z,43.36
2022-08-09T08:59:07.968Z,43.06
2022-08-09T09:00:12.683Z,43.36
2022-08-09T09:01:09.190Z,43.26
2022-08-09T09:02:06.591Z,43.16
2022-08-09T09:03:08.674Z,43.68
2022-08-09T09:04:06.504Z,43.88
2022-08-09T09:05:09.911Z,43.58
2022-08-09T09:06:05.797Z,43.58
2022-08-09T09:07:05.613Z,43.66
2022-08-09T09:08:05.439Z,43.85
2022-08-09T09:09:06.836Z,43.56
2022-08-09T09:10:09.037Z,43.36
2022-08-09T09:11:05.467Z,43.24
2022-08-09T09:12:10.256Z,42.66
2022-08-09T09:13:09.250Z,43.36
2022-08-09T09:14:05.368Z,43.58
2022-08-09T09:15:05.856Z,43.50
2022-08-09T09:16:05.337Z,44.10
2022-08-09T09:17:05.945Z,44.40
2022-08-09T09:18:06.317Z,43.88
2022-08-09T09:20:07.092Z,43.78
2022-08-09T09:21:05.289Z,43.36
2022-08-09T09:22:07.957Z,43.85
2022-08-09T09:23:06.251Z,42.86
2022-08-09T09:24:10.324Z,43.08
2022-08-09T09:26:03.682Z,43.08
2022-08-09T09:26:12.492Z,43.38
2022-08-09T09:27:06.320Z,43.96
2022-08-09T09:28:10.804Z,43.56
2022-08-09T09:29:11.195Z,43.44
2022-08-09T09:30:12.133Z,42.94
2022-08-09T09:31:06.140Z,42.35
2022-08-09T09:32:15.055Z,42.15
2022-08-09T09:33:15.931Z,42.33
2022-08-09T09:34:06.100Z,42.23
2022-08-09T09:35:07.497Z,41.85
2022-08-09T09:36:19.902Z,42.55
2022-08-09T09:37:06.063Z,42.74
2022-08-09T09:38:06.053Z,42.37
2022-08-09T09:39:06.098Z,42.45
2022-08-09T09:40:05.878Z,41.36
2022-08-09T09:41:05.023Z,41.75
2022-08-09T09:42:10.377Z,41.85
2022-08-09T09:43:05.995Z,41.06
2022-08-09T09:44:11.694Z,41.16
2022-08-09T09:45:05.965Z,41.66
2022-08-09T09:47:05.972Z,42.13
2022-08-09T09:48:05.032Z,41.93
2022-08-09T09:49:04.914Z,41.12
2022-08-09T09:50:14.458Z,41.02
2022-08-09T09:51:07.080Z,41.02
2022-08-09T09:52:05.876Z,41.30
2022-08-09T09:53:08.986Z,40.70
2022-08-09T09:54:19.081Z,40.41
2022-08-09T09:55:16.410Z,39.53
2022-08-09T09:56:05.848Z,40.05
2022-08-09T09:58:02.866Z,40.84
2022-08-09T09:58:12.461Z,40.72
2022-08-09T09:59:05.808Z,40.92
2022-08-09T10:00:04.756Z,41.12
2022-08-09T10:01:04.806Z,40.72
2022-08-09T10:02:05.756Z,39.83
2022-08-09T10:03:11.963Z,39.83
2022-08-09T10:04:08.881Z,40.23
2022-08-09T10:05:06.531Z,39.43
2022-08-09T10:06:05.346Z,39.85
2022-08-09T10:07:09.808Z,39.95
2022-08-09T10:08:26.157Z,40.25
2022-08-09T10:09:21.817Z,40.05
2022-08-09T10:10:05.647Z,40.17
2022-08-09T10:11:39.549Z,40.07
2022-08-09T10:12:14.473Z,40.38
2022-08-09T10:13:05.599Z,40.86
2022-08-09T10:14:04.581Z,40.26
2022-08-09T10:15:04.639Z,40.07
2022-08-09T10:16:55.048Z,40.26
2022-08-09T10:17:38.977Z,40.56
2022-08-09T10:18:05.548Z,40.25
2022-08-09T10:19:04.511Z,40.64
2022-08-09T10:20:04.543Z,40.52
2022-08-09T10:21:04.510Z,40.41
2022-08-09T10:22:04.489Z,39.81
2022-08-09T10:23:04.471Z,39.73
2022-08-09T10:24:04.468Z,39.83
2022-08-09T10:25:10.900Z,39.51
2022-08-09T10:26:10.586Z,39.83
2022-08-09T10:27:17.244Z,39.63
2022-08-09T10:28:05.409Z,39.51
2022-08-09T10:29:36.075Z,39.61
2022-08-09T10:31:15.598Z,39.00
2022-08-09T10:32:38.294Z,38.49
2022-08-09T10:33:05.334Z,38.39
2022-08-09T10:34:10.208Z,38.09
2022-08-09T10:35:05.305Z,38.09
2022-08-09T10:36:04.419Z,37.70
2022-08-09T10:37:04.301Z,37.70
2022-08-09T10:38:05.274Z,38.39
2022-08-09T10:39:13.832Z,37.70
2022-08-09T10:40:05.315Z,37.70
2022-08-09T10:41:04.304Z,37.68
2022-08-09T10:42:04.226Z,37.68
2022-08-09T10:43:04.202Z,37.87
2022-08-09T10:44:04.226Z,37.46
2022-08-09T10:45:04.476Z,38.35
2022-08-09T10:46:05.196Z,37.84
2022-08-09T10:47:28.171Z,37.45
2022-08-09T10:48:20.314Z,37.43
2022-08-09T10:49:05.138Z,36.83
2022-08-09T10:50:05.136Z,36.63
2022-08-09T10:51:04.118Z,36.54
2022-08-09T10:52:04.097Z,37.03
2022-08-09T10:53:04.101Z,36.63
2022-08-09T10:54:04.953Z,36.54
2022-08-09T10:55:04.071Z,36.55
2022-08-09T10:56:04.034Z,37.15
2022-08-09T10:57:04.026Z,36.77
2022-08-09T10:58:04.030Z,37.98
2022-08-09T10:59:04.008Z,37.89
2022-08-09T11:00:03.978Z,38.40
2022-08-09T11:03:06.805Z,38.62
2022-08-09T11:03:14.371Z,39.14
2022-08-09T11:03:30.735Z,40.34
2022-08-09T11:04:06.396Z,40.52
2022-08-09T11:05:04.994Z,40.03
2022-08-09T11:06:03.991Z,39.93
2022-08-09T11:07:03.899Z,39.81
2022-08-09T11:08:03.890Z,39.63
2022-08-09T11:09:16.146Z,39.34
2022-08-09T11:10:04.860Z,39.23
2022-08-09T11:11:08.998Z,39.34
2022-08-09T11:12:05.185Z,39.34
2022-08-09T11:13:03.820Z,39.34
2022-08-09T11:14:03.820Z,39.55
2022-08-09T11:15:03.801Z,39.36
2022-08-09T11:16:04.809Z,39.55
2022-08-09T11:17:03.771Z,39.36
2022-08-09T11:18:04.180Z,39.25
2022-08-09T11:19:09.694Z,38.94
2022-08-09T11:20:11.650Z,38.74
2022-08-09T11:21:04.713Z,38.60
2022-08-09T11:22:16.571Z,38.40
2022-08-09T11:23:10.025Z,37.79
2022-08-09T11:24:04.674Z,37.87
2022-08-09T11:25:03.681Z,37.85
2022-08-09T11:26:03.982Z,37.43
2022-08-09T11:27:03.723Z,37.03
2022-08-09T11:28:27.871Z,36.71
2022-08-09T11:29:04.622Z,36.70
2022-08-09T11:30:04.425Z,35.69
2022-08-09T11:31:03.607Z,35.88
2022-08-09T11:32:03.595Z,35.56
2022-08-09T11:33:03.613Z,35.05
2022-08-09T11:34:03.545Z,34.46
2022-08-09T11:35:03.547Z,34.34
2022-08-09T11:36:03.526Z,34.23
2022-08-09T11:37:03.518Z,33.74
2022-08-09T11:38:03.496Z,33.74
2022-08-09T11:39:03.557Z,33.74
2022-08-09T11:40:03.975Z,34.11
2022-08-09T11:41:03.465Z,33.92
2022-08-09T11:42:03.459Z,33.80
2022-08-09T11:43:03.437Z,33.79
2022-08-09T11:44:03.427Z,33.22
2022-08-09T11:45:03.415Z,32.92
2022-08-09T11:46:03.387Z,33.22
2022-08-09T11:47:03.385Z,33.03
2022-08-09T11:48:08.118Z,33.62
2022-08-09T11:49:04.954Z,33.77
2022-08-09T11:50:53.083Z,34.77
2022-08-09T11:52:49.160Z,35.28
2022-08-09T11:53:00.544Z,36.19
2022-08-09T11:53:21.158Z,36.12
2022-08-09T11:54:08.212Z,36.93
2022-08-09T11:55:04.311Z,37.34
2022-08-09T11:56:03.287Z,37.26
2022-08-09T11:57:03.266Z,37.66
2022-08-09T11:58:06.116Z,37.66
2022-08-09T11:59:03.358Z,37.56
2022-08-09T12:00:03.209Z,36.65
2022-08-09T12:01:03.212Z,36.65
2022-08-09T12:02:17.539Z,36.85
2022-08-09T12:03:31.746Z,37.03
2022-08-09T12:04:04.273Z,36.54
2022-08-09T12:05:03.165Z,36.52
2022-08-09T12:06:03.133Z,36.22
2022-08-09T12:07:03.139Z,36.22
2022-08-09T12:08:04.136Z,36.40
2022-08-09T12:09:03.122Z,36.11
2022-08-09T12:10:03.113Z,35.69
2022-08-09T12:11:03.085Z,34.99
2022-08-09T12:12:04.204Z,34.87
2022-08-09T12:13:03.810Z,34.17
2022-08-09T12:14:07.397Z,34.15
2022-08-09T12:15:08.812Z,32.97
2022-08-09T12:16:04.004Z,32.87
2022-08-09T12:17:03.018Z,32.95
2022-08-09T12:18:03.974Z,32.46
2022-08-09T12:19:02.965Z,32.26
2022-08-09T12:20:03.036Z,32.69
2022-08-09T12:21:03.147Z,33.28
2022-08-09T12:22:03.126Z,33.91
2022-08-09T12:23:02.920Z,33.80
2022-08-09T12:24:08.933Z,33.80
2022-08-09T12:25:03.917Z,34.28
2022-08-09T12:26:02.899Z,34.56
2022-08-09T12:28:59.681Z,34.75
2022-08-09T12:29:13.169Z,34.06
2022-08-09T12:29:13.386Z,33.95
2022-08-09T12:30:35.369Z,33.65
2022-08-09T12:31:10.910Z,34.15
2022-08-09T12:32:03.896Z,34.13
2022-08-09T12:33:02.799Z,33.62
2022-08-09T12:34:02.799Z,33.61
2022-08-09T12:35:04.538Z,33.12
2022-08-09T12:36:02.759Z,33.33
2022-08-09T12:37:21.427Z,33.36
2022-08-09T12:38:03.731Z,34.20
2022-08-09T12:39:02.735Z,35.00
2022-08-09T12:40:02.881Z,35.12
2022-08-09T12:41:02.699Z,35.43
2022-08-09T12:42:02.671Z,36.14
2022-08-09T12:43:02.669Z,36.44
2022-08-09T12:44:06.883Z,36.34
2022-08-09T12:45:03.663Z,35.94
2022-08-09T12:46:03.629Z,35.85
2022-08-09T12:47:02.621Z,36.36
2022-08-09T12:48:02.616Z,36.65
2022-08-09T12:49:02.634Z,36.85
2022-08-09T12:50:02.585Z,36.85
2022-08-09T12:51:04.045Z,36.93
2022-08-09T12:52:03.607Z,37.01
2022-08-09T12:53:18.031Z,36.70
2022-08-09T12:54:03.535Z,36.30
2022-08-09T12:56:12.271Z,35.69
2022-08-09T12:56:13.881Z,35.58